createdAt,value
2019-03-03T00:00:45.736Z,15.27
2019-03-03T00:03:12.893Z,12.20
2019-03-03T00:05:39.979Z,8.10
2019-03-03T00:08:26.573Z,13.87
2019-03-03T00:10:53.634Z,12.30
2019-03-03T00:13:20.686Z,12.30
2019-03-03T00:15:47.761Z,20.77
2019-03-03T00:18:14.819Z,17.63
2019-03-03T00:20:41.893Z,17.13
2019-03-03T00:23:08.978Z,14.07
2019-03-03T00:25:36.026Z,12.33
2019-03-03T00:28:21.475Z,15.43
2019-03-03T00:30:48.534Z,18.40
2019-03-03T00:33:15.579Z,13.70
2019-03-03T00:35:42.666Z,11.70
2019-03-03T00:38:28.154Z,15.30
2019-03-03T00:41:21.101Z,11.97
2019-03-03T00:44:06.788Z,14.33
2019-03-03T00:46:47.318Z,15.87
2019-03-03T00:49:42.967Z,12.67
2019-03-03T00:53:03.194Z,14.30
2019-03-03T00:55:50.829Z,12.00
2019-03-03T00:58:40.690Z,11.50
2019-03-03T01:01:26.214Z,12.77
2019-03-03T01:04:15.881Z,13.93
2019-03-03T01:07:02.542Z,10.10
2019-03-03T01:09:49.225Z,16.87
2019-03-03T01:12:28.563Z,11.93
2019-03-03T01:15:06.152Z,11.60
2019-03-03T01:18:00.594Z,13.33
2019-03-03T01:20:36.223Z,11.63
2019-03-03T01:23:26.850Z,13.47
2019-03-03T01:25:53.956Z,11.87
2019-03-03T01:28:39.673Z,9.77
2019-03-03T01:31:06.753Z,10.27
2019-03-03T01:33:33.877Z,13.73
2019-03-03T01:36:00.916Z,15.73
2019-03-03T01:38:27.996Z,17.37
2019-03-03T01:40:55.147Z,13.77
2019-03-03T01:43:22.186Z,10.83
2019-03-03T01:45:49.281Z,18.40
2019-03-03T01:48:20.957Z,21.67
2019-03-03T01:50:48.016Z,16.30
2019-03-03T01:53:15.101Z,13.20
2019-03-03T01:55:42.192Z,12.23
2019-03-03T01:58:09.228Z,19.73
2019-03-03T02:00:36.409Z,20.40
2019-03-03T02:03:04.758Z,10.70
2019-03-03T02:05:31.806Z,15.00
2019-03-03T02:07:58.851Z,8.57
2019-03-03T02:10:26.041Z,16.90
2019-03-03T02:12:53.507Z,14.93
2019-03-03T02:15:21.332Z,15.83
2019-03-03T02:17:48.420Z,15.43
2019-03-03T02:20:15.497Z,12.87
2019-03-03T02:22:42.571Z,13.33
2019-03-03T02:25:10.794Z,14.10
2019-03-03T02:27:37.884Z,14.07
2019-03-03T02:30:11.396Z,9.83
2019-03-03T02:32:38.526Z,17.60
2019-03-03T02:35:05.910Z,18.33
2019-03-03T02:37:32.998Z,15.10
2019-03-03T02:40:20.484Z,21.50
2019-03-03T02:42:47.540Z,15.77
2019-03-03T02:45:15.697Z,13.47
2019-03-03T02:47:44.906Z,16.70
2019-03-03T02:50:12.255Z,15.43
2019-03-03T02:52:39.329Z,14.43
2019-03-03T02:55:08.159Z,13.07
2019-03-03T02:57:35.231Z,18.10
2019-03-03T03:00:02.516Z,14.60
2019-03-03T03:03:01.546Z,18.97
2019-03-03T03:05:44.090Z,18.00
2019-03-03T03:08:14.685Z,17.43
2019-03-03T03:11:10.533Z,18.43
2019-03-03T03:14:01.013Z,21.77
2019-03-03T03:16:46.028Z,14.33
2019-03-03T03:19:31.027Z,14.57
2019-03-03T03:22:17.667Z,16.37
2019-03-03T03:25:03.464Z,19.77
2019-03-03T03:27:54.322Z,16.13
2019-03-03T03:30:33.872Z,16.93
2019-03-03T03:33:19.380Z,17.23
2019-03-03T03:35:54.405Z,18.77
2019-03-03T03:38:54.424Z,13.50
2019-03-03T03:41:29.240Z,14.33
2019-03-03T03:44:24.507Z,21.10
2019-03-03T03:46:56.511Z,20.20
2019-03-03T03:49:31.399Z,26.83
2019-03-03T03:52:27.347Z,14.77
2019-03-03T03:55:17.527Z,18.73
2019-03-03T03:58:10.152Z,13.10
2019-03-03T04:00:59.539Z,18.43
2019-03-03T04:03:41.656Z,21.43
2019-03-03T04:06:28.484Z,19.30
2019-03-03T04:09:15.264Z,20.93
2019-03-03T04:12:10.991Z,15.87
2019-03-03T04:15:17.833Z,21.40
2019-03-03T04:18:04.481Z,20.63
2019-03-03T04:20:50.087Z,16.50
2019-03-03T04:23:52.095Z,18.73
2019-03-03T04:26:41.640Z,15.33
2019-03-03T04:29:27.860Z,22.47
2019-03-03T04:32:05.884Z,21.10
2019-03-03T04:34:51.143Z,16.33
2019-03-03T04:37:39.410Z,14.87
2019-03-03T04:40:16.981Z,22.13
2019-03-03T04:42:55.123Z,22.10
2019-03-03T04:45:41.786Z,17.80
2019-03-03T04:48:27.458Z,23.77
2019-03-03T04:51:13.181Z,24.60
2019-03-03T04:53:58.924Z,19.10
2019-03-03T04:57:04.005Z,23.90
2019-03-03T04:59:48.117Z,27.70
2019-03-03T05:02:32.699Z,20.63
2019-03-03T05:05:37.738Z,20.87
2019-03-03T05:08:23.306Z,15.43
2019-03-03T05:11:09.975Z,17.40
2019-03-03T05:13:47.836Z,14.20
2019-03-03T05:16:33.211Z,22.33
2019-03-03T05:19:08.954Z,20.83
2019-03-03T05:21:36.025Z,27.20
2019-03-03T05:24:03.073Z,21.53
2019-03-03T05:26:30.125Z,20.33
2019-03-03T05:28:57.177Z,18.33
2019-03-03T05:31:25.236Z,18.20
2019-03-03T05:33:52.332Z,28.33
2019-03-03T05:36:19.376Z,21.30
2019-03-03T05:38:46.421Z,20.90
2019-03-03T05:41:13.491Z,23.50
2019-03-03T05:43:40.552Z,18.73
2019-03-03T05:46:07.786Z,22.53
2019-03-03T05:48:34.858Z,20.23
2019-03-03T05:51:01.932Z,25.80
2019-03-03T05:53:29.001Z,17.93
2019-03-03T05:55:56.062Z,19.10
2019-03-03T05:58:23.109Z,27.57
2019-03-03T06:00:50.195Z,20.57
2019-03-03T06:03:17.241Z,27.47
2019-03-03T06:05:44.293Z,19.67
2019-03-03T06:08:11.357Z,31.73
2019-03-03T06:10:38.409Z,17.73
2019-03-03T06:13:05.846Z,21.70
2019-03-03T06:15:32.890Z,20.80
2019-03-03T06:17:59.952Z,25.67
2019-03-03T06:20:27.887Z,21.93
2019-03-03T06:22:55.209Z,18.67
2019-03-03T06:25:22.260Z,27.70
2019-03-03T06:27:49.572Z,23.00
2019-03-03T06:30:16.626Z,21.20
2019-03-03T06:32:43.687Z,20.90
2019-03-03T06:35:11.098Z,25.27
2019-03-03T06:37:38.169Z,28.47
2019-03-03T06:40:05.811Z,16.33
2019-03-03T06:42:33.004Z,22.63
2019-03-03T06:45:00.137Z,18.47
2019-03-03T06:47:27.590Z,25.90
2019-03-03T06:49:54.640Z,23.23
2019-03-03T06:52:21.720Z,27.83
2019-03-03T06:54:48.915Z,25.30
2019-03-03T06:57:15.980Z,28.30
2019-03-03T06:59:51.659Z,24.33
2019-03-03T07:02:18.791Z,23.20
2019-03-03T07:04:45.871Z,25.30
2019-03-03T07:07:12.984Z,23.13
2019-03-03T07:09:40.051Z,26.23
2019-03-03T07:12:07.098Z,23.77
2019-03-03T07:14:34.203Z,29.17
2019-03-03T07:17:01.260Z,23.20
2019-03-03T07:19:28.343Z,21.70
2019-03-03T07:21:55.432Z,22.87
2019-03-03T07:24:22.494Z,22.57
2019-03-03T07:26:49.610Z,31.23
2019-03-03T07:29:16.700Z,19.63
2019-03-03T07:31:43.819Z,31.33
2019-03-03T07:34:10.933Z,35.20
2019-03-03T07:36:38.017Z,26.67
2019-03-03T07:39:14.622Z,21.43
2019-03-03T07:41:41.678Z,19.77
2019-03-03T07:44:08.903Z,20.17
2019-03-03T07:47:12.720Z,20.70
2019-03-03T07:49:39.820Z,25.40
2019-03-03T07:52:06.946Z,22.50
2019-03-03T07:54:34.059Z,15.93
2019-03-03T07:57:01.124Z,24.47
2019-03-03T07:59:28.164Z,17.87
2019-03-03T08:01:55.246Z,17.57
2019-03-03T08:04:22.364Z,28.53
2019-03-03T08:06:49.653Z,20.87
2019-03-03T08:09:16.740Z,25.90
2019-03-03T08:11:43.895Z,14.90
2019-03-03T08:14:10.957Z,19.00
2019-03-03T08:16:38.002Z,26.60
2019-03-03T08:19:05.127Z,19.30
2019-03-03T08:21:32.218Z,20.70
2019-03-03T08:23:59.400Z,24.07
2019-03-03T08:26:26.492Z,21.47
2019-03-03T08:28:53.554Z,18.67
2019-03-03T08:31:20.604Z,18.30
2019-03-03T08:33:47.848Z,23.43
2019-03-03T08:36:16.044Z,24.47
2019-03-03T08:38:43.070Z,22.33
2019-03-03T08:41:10.162Z,20.83
2019-03-03T08:43:43.932Z,32.23
2019-03-03T08:46:42.935Z,17.97
2019-03-03T08:49:28.504Z,17.93
2019-03-03T08:52:18.210Z,18.13
2019-03-03T08:55:03.272Z,20.80
2019-03-03T08:57:39.476Z,20.83
2019-03-03T09:00:24.640Z,20.00
2019-03-03T09:03:26.627Z,21.63
2019-03-03T09:06:31.238Z,22.40
2019-03-03T09:09:20.895Z,19.23
2019-03-03T09:12:00.844Z,21.23
2019-03-03T09:14:56.448Z,21.67
2019-03-03T09:17:55.079Z,18.60
2019-03-03T09:20:53.763Z,20.43
2019-03-03T09:23:31.159Z,25.43
2019-03-03T09:26:07.300Z,14.73
2019-03-03T09:29:08.184Z,20.87
2019-03-03T09:31:54.886Z,20.17
2019-03-03T09:34:40.124Z,21.00
2019-03-03T09:37:27.980Z,16.07
2019-03-03T09:40:17.407Z,18.70
2019-03-03T09:42:51.559Z,21.87
2019-03-03T09:45:43.262Z,18.13
2019-03-03T09:48:30.101Z,19.40
2019-03-03T09:51:11.958Z,16.77
2019-03-03T09:53:57.565Z,24.70
2019-03-03T09:56:43.122Z,21.47
2019-03-03T09:59:45.262Z,19.80
2019-03-03T10:02:36.713Z,13.70
2019-03-03T10:05:14.634Z,19.60
2019-03-03T10:08:00.027Z,13.47
2019-03-03T10:10:33.482Z,14.70
2019-03-03T10:13:12.936Z,12.20
2019-03-03T10:15:55.509Z,19.10
2019-03-03T10:19:06.785Z,13.40
2019-03-03T10:21:34.629Z,15.43
2019-03-03T10:24:14.181Z,17.53
2019-03-03T10:27:08.256Z,14.63
2019-03-03T10:30:03.873Z,15.40
2019-03-03T10:32:53.286Z,13.17
2019-03-03T10:35:38.546Z,15.37
2019-03-03T10:38:16.602Z,15.93
2019-03-03T10:41:18.245Z,14.60
2019-03-03T10:44:07.800Z,12.87
2019-03-03T10:47:04.506Z,11.87
2019-03-03T10:49:59.962Z,9.23
2019-03-03T10:52:49.471Z,7.83
2019-03-03T10:55:30.030Z,9.23
2019-03-03T10:58:08.075Z,8.50
2019-03-03T11:00:46.341Z,7.00
2019-03-03T11:03:27.052Z,8.27
2019-03-03T11:06:22.968Z,5.87
2019-03-03T11:09:06.433Z,7.13
2019-03-03T11:12:02.285Z,5.40
2019-03-03T11:14:44.520Z,7.07
2019-03-03T11:17:21.484Z,7.03
2019-03-03T11:20:11.009Z,8.33
2019-03-03T11:22:56.589Z,5.60
2019-03-03T11:26:26.305Z,6.47
2019-03-03T11:29:22.631Z,9.27
2019-03-03T11:32:14.902Z,4.47
2019-03-03T11:35:07.623Z,8.83
2019-03-03T11:37:53.057Z,7.10
2019-03-03T11:40:41.463Z,7.33
2019-03-03T11:43:43.246Z,6.47
2019-03-03T11:46:16.075Z,8.23
2019-03-03T11:49:01.380Z,8.67
2019-03-03T11:51:48.246Z,5.43
2019-03-03T11:54:52.892Z,6.90
2019-03-03T11:57:39.596Z,7.70
2019-03-03T12:00:42.575Z,9.43
2019-03-03T12:03:16.545Z,7.40
2019-03-03T12:06:03.411Z,5.13
2019-03-03T12:08:50.096Z,6.27
2019-03-03T12:11:45.699Z,9.90
2019-03-03T12:14:30.905Z,8.47
2019-03-03T12:17:16.542Z,7.83
2019-03-03T12:20:06.080Z,9.43
2019-03-03T12:22:52.749Z,7.83
2019-03-03T12:25:42.584Z,11.30
2019-03-03T12:28:44.825Z,8.50
2019-03-03T12:31:33.937Z,12.20
2019-03-03T12:34:20.659Z,15.70
2019-03-03T12:37:16.072Z,11.77
2019-03-03T12:40:02.777Z,11.47
2019-03-03T12:42:52.238Z,17.33
2019-03-03T12:45:35.308Z,13.17
2019-03-03T12:48:27.929Z,20.40
2019-03-03T12:51:13.102Z,10.47
2019-03-03T12:53:58.518Z,14.33
2019-03-03T12:56:41.327Z,12.00
2019-03-03T12:59:14.716Z,13.57
2019-03-03T13:01:51.777Z,10.80
2019-03-03T13:04:47.807Z,14.30
2019-03-03T13:07:37.295Z,15.00
2019-03-03T13:10:34.338Z,17.83
2019-03-03T13:13:06.801Z,14.50
2019-03-03T13:15:59.820Z,16.47
2019-03-03T13:18:37.468Z,21.73
2019-03-03T13:21:23.127Z,18.63
2019-03-03T13:24:02.455Z,16.13
2019-03-03T13:26:58.329Z,23.83
2019-03-03T13:29:38.119Z,20.73
2019-03-03T13:32:31.119Z,18.67
2019-03-03T13:35:17.805Z,17.27
2019-03-03T13:38:07.276Z,18.97
2019-03-03T13:40:56.962Z,21.10
2019-03-03T13:43:24.051Z,22.57
2019-03-03T13:45:51.253Z,21.17
2019-03-03T13:48:18.359Z,25.33
2019-03-03T13:50:46.103Z,18.40
2019-03-03T13:53:13.227Z,18.00
2019-03-03T13:55:40.427Z,14.87
2019-03-03T13:58:07.607Z,13.07
2019-03-03T14:00:34.964Z,20.73
2019-03-03T14:03:02.006Z,21.37
2019-03-03T14:05:29.111Z,22.00
2019-03-03T14:07:56.309Z,24.77
2019-03-03T14:10:23.386Z,22.27
2019-03-03T14:12:50.494Z,28.17
2019-03-03T14:15:18.462Z,28.13
2019-03-03T14:17:45.529Z,21.93
2019-03-03T14:20:15.427Z,24.37
2019-03-03T14:22:42.536Z,18.17
2019-03-03T14:25:10.229Z,28.03
2019-03-03T14:27:37.414Z,20.70
2019-03-03T14:30:05.717Z,16.73
2019-03-03T14:32:32.789Z,19.67
2019-03-03T14:34:59.841Z,24.17
2019-03-03T14:37:26.939Z,25.13
2019-03-03T14:39:54.230Z,23.17
2019-03-03T14:42:21.476Z,20.07
2019-03-03T14:44:48.515Z,20.00
2019-03-03T14:47:15.686Z,24.27
2019-03-03T14:49:42.852Z,18.37
2019-03-03T14:52:09.986Z,16.80
2019-03-03T14:54:37.290Z,23.03
2019-03-03T14:57:04.502Z,15.87
2019-03-03T14:59:31.619Z,23.47
2019-03-03T15:01:58.721Z,25.67
2019-03-03T15:04:25.773Z,22.97
2019-03-03T15:06:52.833Z,18.30
2019-03-03T15:09:20.973Z,15.43
2019-03-03T15:11:48.082Z,19.97
2019-03-03T15:14:15.154Z,19.37
2019-03-03T15:16:42.237Z,21.93
2019-03-03T15:19:09.417Z,18.60
2019-03-03T15:21:36.650Z,16.63
2019-03-03T15:24:03.780Z,19.30
2019-03-03T15:26:31.311Z,16.63
2019-03-03T15:28:58.412Z,22.60
2019-03-03T15:31:25.481Z,24.07
2019-03-03T15:33:52.527Z,17.03
2019-03-03T15:36:20.983Z,19.07
2019-03-03T15:38:56.499Z,19.97
2019-03-03T15:41:23.661Z,19.27
2019-03-03T15:43:52.691Z,21.53
2019-03-03T15:46:19.963Z,16.23
2019-03-03T15:48:47.059Z,17.93
2019-03-03T15:51:14.245Z,20.87
2019-03-03T15:53:41.312Z,21.97
2019-03-03T15:56:08.778Z,20.33
2019-03-03T15:58:35.870Z,16.67
2019-03-03T16:01:09.246Z,18.43
2019-03-03T16:03:36.312Z,12.83
2019-03-03T16:06:03.517Z,22.40
2019-03-03T16:08:30.855Z,21.87
2019-03-03T16:10:57.977Z,14.53
2019-03-03T16:13:25.245Z,19.53
2019-03-03T16:15:52.316Z,16.00
2019-03-03T16:18:19.386Z,22.73
2019-03-03T16:20:50.700Z,19.23
2019-03-03T16:23:17.772Z,19.20
2019-03-03T16:25:44.964Z,14.60
2019-03-03T16:28:12.060Z,16.90
2019-03-03T16:30:39.205Z,18.80
2019-03-03T16:33:06.283Z,14.77
2019-03-03T16:35:33.367Z,12.00
2019-03-03T16:38:00.413Z,16.70
2019-03-03T16:40:27.630Z,18.23
2019-03-03T16:42:54.670Z,16.73
2019-03-03T16:45:21.770Z,14.87
2019-03-03T16:47:49.173Z,17.07
2019-03-03T16:50:17.675Z,13.80
2019-03-03T16:52:45.131Z,12.70
2019-03-03T16:55:13.429Z,17.73
2019-03-03T16:57:40.596Z,16.47
2019-03-03T17:00:11.201Z,13.47
2019-03-03T17:02:38.475Z,18.03
2019-03-03T17:05:06.152Z,16.80
2019-03-03T17:07:33.286Z,23.30
2019-03-03T17:10:00.544Z,19.43
2019-03-03T17:12:27.701Z,15.63
2019-03-03T17:14:54.775Z,18.60
2019-03-03T17:17:21.908Z,21.13
2019-03-03T17:19:49.036Z,15.67
2019-03-03T17:22:16.158Z,15.70
2019-03-03T17:24:43.253Z,15.47
2019-03-03T17:27:27.934Z,13.13
2019-03-03T17:29:55.054Z,14.73
2019-03-03T17:32:22.128Z,14.83
2019-03-03T17:34:49.192Z,15.90
2019-03-03T17:37:16.298Z,18.07
2019-03-03T17:39:43.450Z,15.53
2019-03-03T17:42:10.606Z,20.47
2019-03-03T17:44:37.682Z,12.80
2019-03-03T17:47:04.947Z,16.20
2019-03-03T17:49:32.157Z,13.20
2019-03-03T17:51:59.320Z,15.47
2019-03-03T17:54:26.390Z,20.83
2019-03-03T17:56:53.514Z,20.20
2019-03-03T17:59:20.597Z,17.67
2019-03-03T18:01:47.654Z,11.93
2019-03-03T18:04:16.485Z,21.77
2019-03-03T18:10:55.595Z,15.90
2019-03-03T18:13:22.652Z,16.63
2019-03-03T18:15:49.732Z,20.30
2019-03-03T18:18:53.286Z,15.13
2019-03-03T18:21:20.437Z,19.60
2019-03-03T18:23:47.538Z,16.43
2019-03-03T18:26:14.709Z,12.20
2019-03-03T18:28:41.785Z,11.50
2019-03-03T18:31:08.877Z,15.57
2019-03-03T18:33:36.111Z,14.60
2019-03-03T18:36:03.240Z,16.17
2019-03-03T18:38:30.390Z,22.27
2019-03-03T18:40:57.466Z,11.60
2019-03-03T18:43:24.585Z,22.73
2019-03-03T18:45:51.681Z,20.43
2019-03-03T18:48:18.947Z,16.27
2019-03-03T18:50:46.062Z,16.23
2019-03-03T18:53:13.224Z,14.10
2019-03-03T18:55:40.292Z,16.23
2019-03-03T18:58:07.427Z,13.90
2019-03-03T19:00:35.531Z,13.27
2019-03-03T19:03:03.973Z,14.30
2019-03-03T19:05:31.035Z,14.40
2019-03-03T19:07:58.266Z,13.70
2019-03-03T19:10:25.584Z,20.67
2019-03-03T19:12:52.746Z,15.37
2019-03-03T19:15:39.256Z,14.60
2019-03-03T19:18:06.454Z,13.77
2019-03-03T19:20:33.654Z,12.67
2019-03-03T19:23:00.720Z,19.03
2019-03-03T19:25:27.886Z,13.50
2019-03-03T19:27:55.132Z,15.03
2019-03-03T19:30:23.316Z,15.90
2019-03-03T19:33:02.497Z,13.07
2019-03-03T19:35:29.774Z,16.07
2019-03-03T19:37:56.938Z,14.03
2019-03-03T19:40:24.381Z,16.07
2019-03-03T19:42:51.517Z,10.13
2019-03-03T19:45:20.908Z,13.43
2019-03-03T19:47:48.051Z,12.60
2019-03-03T19:50:33.520Z,8.27
2019-03-03T19:53:31.843Z,13.07
2019-03-03T19:56:01.803Z,12.57
2019-03-03T19:58:28.894Z,14.47
2019-03-03T20:00:56.865Z,8.83
2019-03-03T20:03:24.159Z,14.80
2019-03-03T20:05:51.434Z,16.20
2019-03-03T20:08:18.848Z,13.10
2019-03-03T20:10:46.111Z,10.37
2019-03-03T20:13:13.664Z,11.97
2019-03-03T20:15:40.910Z,13.43
2019-03-03T20:18:09.046Z,10.83
2019-03-03T20:20:36.642Z,5.83
2019-03-03T20:23:04.094Z,9.50
2019-03-03T20:25:31.428Z,10.17
2019-03-03T20:27:58.624Z,9.63
2019-03-03T20:30:26.499Z,11.83
2019-03-03T20:32:55.196Z,10.57
2019-03-03T20:35:24.398Z,16.23
2019-03-03T20:37:51.709Z,10.37
2019-03-03T20:40:19.377Z,9.37
2019-03-03T20:42:46.540Z,11.97
2019-03-03T20:45:16.184Z,9.13
2019-03-03T20:47:43.220Z,8.87
2019-03-03T20:50:13.316Z,14.40
2019-03-03T20:52:40.433Z,15.27
2019-03-03T20:55:09.790Z,11.30
2019-03-03T20:57:36.840Z,16.03
2019-03-03T21:00:06.696Z,9.43
2019-03-03T21:02:33.766Z,8.13
2019-03-03T21:05:00.806Z,10.07
2019-03-03T21:07:27.934Z,8.93
2019-03-03T21:09:55.004Z,12.17
2019-03-03T21:12:22.163Z,15.83
2019-03-03T21:14:49.275Z,9.17
2019-03-03T21:17:16.390Z,9.70
2019-03-03T21:19:43.608Z,10.77
2019-03-03T21:22:10.737Z,12.43
2019-03-03T21:24:37.953Z,9.60
2019-03-03T21:27:05.081Z,10.47
2019-03-03T21:29:32.279Z,11.00
2019-03-03T21:31:59.360Z,7.97
2019-03-03T21:34:26.451Z,11.50
2019-03-03T21:36:53.530Z,13.03
2019-03-03T21:39:20.714Z,9.20
2019-03-03T21:41:48.018Z,11.53
2019-03-03T21:44:15.204Z,10.20
2019-03-03T21:46:42.252Z,5.57
2019-03-03T21:49:09.486Z,10.27
2019-03-03T21:51:36.951Z,13.10
2019-03-03T21:54:04.261Z,12.77
2019-03-03T21:56:31.351Z,10.43
2019-03-03T21:58:58.553Z,9.70
2019-03-03T22:01:25.650Z,7.77
2019-03-03T22:03:52.881Z,8.20
2019-03-03T22:06:21.168Z,8.63
2019-03-03T22:08:48.285Z,7.97
2019-03-03T22:11:21.283Z,12.77
2019-03-03T22:13:48.543Z,8.20
2019-03-03T22:16:15.672Z,9.43
2019-03-03T22:18:44.551Z,10.47
2019-03-03T22:21:11.631Z,8.77
2019-03-03T22:23:38.733Z,9.87
2019-03-03T22:26:05.886Z,9.13
2019-03-03T22:28:33.093Z,12.13
2019-03-03T22:31:00.262Z,9.50
2019-03-03T22:33:27.346Z,7.93
2019-03-03T22:35:54.435Z,14.13
2019-03-03T22:38:21.515Z,10.80
2019-03-03T22:40:48.702Z,7.13
2019-03-03T22:43:17.147Z,10.67
2019-03-03T22:45:44.404Z,10.60
2019-03-03T22:48:11.548Z,8.07
2019-03-03T22:50:38.730Z,10.40
2019-03-03T22:53:05.812Z,8.90
2019-03-03T22:55:37.235Z,12.33
2019-03-03T22:58:04.603Z,12.07
2019-03-03T23:01:15.709Z,7.87
2019-03-03T23:04:06.413Z,11.17
2019-03-03T23:07:04.766Z,16.23
2019-03-03T23:10:09.550Z,10.50
2019-03-03T23:13:13.344Z,8.23
2019-03-03T23:16:30.038Z,11.90
2019-03-03T23:19:29.048Z,14.33
2019-03-03T23:22:50.538Z,7.33
2019-03-03T23:25:58.302Z,11.13
2019-03-03T23:28:25.592Z,8.50
2019-03-03T23:30:54.277Z,7.40
2019-03-03T23:33:21.362Z,13.43
2019-03-03T23:35:48.675Z,7.57
2019-03-03T23:38:15.784Z,13.30
2019-03-03T23:40:42.903Z,7.33
2019-03-03T23:43:10.045Z,12.13
2019-03-03T23:45:37.218Z,6.83
2019-03-03T23:48:04.307Z,6.23
2019-03-03T23:50:43.586Z,7.60
2019-03-03T23:53:10.713Z,7.97
2019-03-03T23:55:38.316Z,10.67
2019-03-03T23:58:05.475Z,7.20
